createdAt,value
2023-02-13T00:01:20.598Z,4.80
2023-02-13T00:03:48.851Z,4.77
2023-02-13T00:06:17.519Z,4.96
2023-02-13T00:08:47.224Z,5.25
2023-02-13T00:11:15.965Z,5.00
2023-02-13T00:13:44.404Z,4.98
2023-02-13T00:16:13.129Z,4.97
2023-02-13T00:18:41.407Z,4.84
2023-02-13T00:21:12.243Z,5.05
2023-02-13T00:23:41.446Z,5.05
2023-02-13T00:26:13.583Z,5.23
2023-02-13T00:28:42.048Z,4.87
2023-02-13T00:31:13.489Z,5.19
2023-02-13T00:33:42.005Z,4.87
2023-02-13T00:36:12.207Z,5.07
2023-02-13T00:38:41.655Z,5.11
2023-02-13T00:41:12.373Z,5.10
2023-02-13T00:43:41.088Z,4.88
2023-02-13T00:46:09.778Z,4.81
2023-02-13T00:48:39.313Z,5.07
2023-02-13T00:51:09.106Z,5.29
2023-02-13T00:53:38.034Z,5.07
2023-02-13T00:56:07.810Z,5.05
2023-02-13T00:58:37.632Z,5.10
2023-02-13T01:01:06.450Z,5.01
2023-02-13T01:03:36.738Z,4.86
2023-02-13T01:06:06.713Z,5.18
2023-02-13T01:08:35.156Z,4.85
2023-02-13T01:11:03.780Z,4.89
2023-02-13T01:13:32.250Z,4.84
2023-02-13T01:16:02.358Z,5.02
2023-02-13T01:18:30.823Z,4.81
2023-02-13T01:21:01.460Z,4.88
2023-02-13T01:23:32.193Z,5.02
2023-02-13T01:26:01.089Z,4.74
2023-02-13T01:28:29.765Z,4.66
2023-02-13T01:30:59.528Z,4.73
2023-02-13T01:33:30.670Z,4.86
2023-02-13T01:36:00.527Z,4.66
2023-02-13T01:38:28.977Z,4.59
2023-02-13T01:40:57.761Z,4.80
2023-02-13T01:43:26.522Z,4.70
2023-02-13T01:45:57.895Z,5.09
2023-02-13T01:48:27.993Z,4.87
2023-02-13T01:51:00.103Z,4.96
2023-02-13T01:53:31.668Z,4.85
2023-02-13T01:56:02.568Z,4.83
2023-02-13T01:58:33.756Z,4.90
2023-02-13T02:01:02.745Z,4.74
2023-02-13T02:03:33.385Z,4.90
2023-02-13T02:06:03.906Z,4.90
2023-02-13T02:08:32.846Z,4.70
2023-02-13T02:11:07.834Z,4.92
2023-02-13T02:13:36.162Z,4.49
2023-02-13T02:16:04.760Z,4.49
2023-02-13T02:18:33.054Z,4.38
2023-02-13T02:21:32.592Z,4.94
2023-02-13T02:24:26.015Z,4.87
2023-02-13T02:27:21.085Z,4.78
2023-02-13T02:30:09.746Z,4.90
2023-02-13T02:32:57.756Z,4.75
2023-02-13T02:35:32.335Z,4.71
2023-02-13T02:38:10.055Z,4.77
2023-02-13T02:40:48.571Z,4.70
2023-02-13T02:43:29.862Z,4.71
2023-02-13T02:46:05.725Z,4.80
2023-02-13T02:49:01.745Z,4.75
2023-02-13T02:51:35.529Z,4.67
2023-02-13T02:54:30.487Z,4.68
2023-02-13T02:57:04.033Z,4.69
2023-02-13T02:59:50.725Z,4.48
2023-02-13T03:02:45.686Z,4.45
2023-02-13T03:05:39.959Z,4.63
2023-02-13T03:08:08.758Z,4.38
2023-02-13T03:10:56.205Z,4.53
2023-02-13T03:13:40.865Z,4.98
2023-02-13T03:16:31.107Z,4.88
2023-02-13T03:19:17.545Z,4.61
2023-02-13T03:22:09.116Z,4.76
2023-02-13T03:24:45.555Z,4.81
2023-02-13T03:27:39.362Z,4.79
2023-02-13T03:30:17.121Z,4.93
2023-02-13T03:32:51.693Z,4.89
2023-02-13T03:35:56.975Z,5.06
2023-02-13T03:38:31.452Z,4.88
2023-02-13T03:41:21.908Z,4.95
2023-02-13T03:44:08.245Z,5.17
2023-02-13T03:46:40.035Z,4.90
2023-02-13T03:49:27.354Z,4.86
2023-02-13T03:51:59.428Z,4.92
2023-02-13T03:54:50.296Z,5.03
2023-02-13T03:57:39.387Z,5.00
2023-02-13T04:00:12.447Z,4.99
2023-02-13T04:02:44.190Z,4.93
2023-02-13T04:05:17.359Z,5.05
2023-02-13T04:07:45.887Z,4.66
2023-02-13T04:10:17.028Z,4.88
2023-02-13T04:12:52.516Z,5.07
2023-02-13T04:15:23.706Z,5.06
2023-02-13T04:17:57.154Z,5.06
2023-02-13T04:20:28.842Z,5.05
2023-02-13T04:22:57.337Z,4.80
2023-02-13T04:25:27.189Z,5.07
2023-02-13T04:27:55.570Z,4.69
2023-02-13T04:30:24.164Z,4.66
2023-02-13T04:32:54.194Z,4.71
2023-02-13T04:35:23.183Z,4.74
2023-02-13T04:37:51.459Z,4.63
2023-02-13T04:40:20.604Z,4.76
2023-02-13T04:42:50.772Z,4.96
2023-02-13T04:45:19.426Z,4.65
2023-02-13T04:47:51.650Z,5.04
2023-02-13T04:50:20.608Z,4.71
2023-02-13T04:52:49.574Z,4.64
2023-02-13T04:55:18.218Z,4.64
2023-02-13T04:57:46.718Z,4.63
2023-02-13T05:00:17.371Z,4.82
2023-02-13T05:02:45.843Z,4.63
2023-02-13T05:05:14.809Z,4.69
2023-02-13T05:07:43.143Z,4.66
2023-02-13T05:10:13.022Z,4.78
2023-02-13T05:12:42.014Z,4.69
2023-02-13T05:15:11.194Z,4.67
2023-02-13T05:17:41.460Z,4.84
2023-02-13T05:20:10.815Z,4.60
2023-02-13T05:22:57.148Z,4.56
2023-02-13T05:25:25.767Z,4.90
2023-02-13T05:27:54.315Z,4.85
2023-02-13T05:30:22.084Z,4.75
2023-02-13T05:32:52.085Z,4.86
2023-02-13T05:35:20.738Z,4.61
2023-02-13T05:37:49.722Z,4.77
2023-02-13T05:40:18.963Z,4.93
2023-02-13T05:42:47.433Z,4.74
2023-02-13T05:45:16.262Z,4.71
2023-02-13T05:47:44.722Z,4.64
2023-02-13T05:50:14.836Z,4.94
2023-02-13T05:52:43.207Z,4.58
2023-02-13T05:55:11.941Z,4.64
2023-02-13T05:57:40.355Z,4.65
2023-02-13T06:00:10.272Z,4.77
2023-02-13T06:02:38.585Z,4.57
2023-02-13T06:05:07.642Z,4.70
2023-02-13T06:07:37.305Z,4.92
2023-02-13T06:10:06.626Z,4.75
2023-02-13T06:12:35.016Z,4.65
2023-02-13T06:15:03.651Z,4.74
2023-02-13T06:17:32.029Z,4.76
2023-02-13T06:20:00.583Z,4.78
2023-02-13T06:22:29.145Z,4.64
2023-02-13T06:24:59.291Z,4.95
2023-02-13T06:27:27.676Z,4.76
2023-02-13T06:29:56.301Z,4.88
2023-02-13T06:32:24.508Z,4.79
2023-02-13T06:34:53.355Z,4.84
2023-02-13T06:37:21.678Z,4.88
2023-02-13T06:39:50.548Z,4.82
2023-02-13T06:42:20.693Z,5.18
2023-02-13T06:44:49.513Z,4.91
2023-02-13T06:47:17.897Z,4.94
2023-02-13T06:49:46.593Z,5.03
2023-02-13T06:52:15.003Z,5.17
2023-02-13T06:54:47.786Z,5.22
2023-02-13T06:57:17.066Z,5.19
2023-02-13T06:59:47.005Z,5.31
2023-02-13T07:02:15.454Z,5.66
2023-02-13T07:04:44.060Z,6.68
2023-02-13T07:07:12.515Z,7.69
2023-02-13T07:09:41.808Z,8.03
2023-02-13T07:12:10.180Z,7.87
2023-02-13T07:14:38.934Z,7.73
2023-02-13T07:17:11.300Z,7.59
2023-02-13T07:19:40.164Z,7.21
2023-02-13T07:22:08.571Z,7.02
2023-02-13T07:24:38.654Z,7.01
2023-02-13T07:27:07.332Z,7.07
2023-02-13T07:29:35.995Z,7.31
2023-02-13T07:32:04.438Z,7.93
2023-02-13T07:34:34.663Z,8.66
2023-02-13T07:37:03.074Z,8.61
2023-02-13T07:39:32.549Z,8.62
2023-02-13T07:42:01.079Z,8.95
2023-02-13T07:44:29.585Z,9.62
2023-02-13T07:46:58.111Z,10.25
2023-02-13T07:49:26.784Z,10.64
2023-02-13T07:51:57.645Z,10.75
2023-02-13T07:54:26.236Z,10.32
2023-02-13T07:56:54.566Z,9.93
2023-02-13T07:59:23.253Z,9.59
2023-02-13T08:01:51.689Z,9.19
2023-02-13T08:04:20.216Z,8.91
2023-02-13T08:06:48.513Z,8.83
2023-02-13T08:09:40.788Z,9.44
2023-02-13T08:12:10.206Z,9.61
2023-02-13T08:14:38.754Z,9.42
2023-02-13T08:17:06.982Z,9.50
2023-02-13T08:19:35.610Z,9.27
2023-02-13T08:22:03.966Z,9.01
2023-02-13T08:24:33.962Z,9.17
2023-02-13T08:27:02.464Z,8.85
2023-02-13T08:29:31.183Z,8.60
2023-02-13T08:31:59.557Z,8.50
2023-02-13T08:34:28.323Z,8.48
2023-02-13T08:36:56.591Z,8.39
2023-02-13T08:39:25.234Z,8.36
2023-02-13T08:41:54.925Z,8.44
2023-02-13T08:44:23.527Z,8.10
2023-02-13T08:46:53.081Z,8.10
2023-02-13T08:49:21.790Z,8.17
2023-02-13T08:51:50.165Z,8.36
2023-02-13T08:54:18.722Z,8.54
2023-02-13T08:56:46.946Z,8.51
2023-02-13T08:59:16.794Z,8.78
2023-02-13T09:01:45.088Z,8.45
2023-02-13T09:04:15.911Z,8.25
2023-02-13T09:06:44.366Z,8.19
2023-02-13T09:09:13.069Z,8.03
2023-02-13T09:11:41.259Z,8.03
2023-02-13T09:14:09.828Z,8.09
2023-02-13T09:16:39.532Z,8.38
2023-02-13T09:19:08.689Z,8.29
2023-02-13T09:21:37.501Z,8.13
2023-02-13T09:24:08.881Z,8.44
2023-02-13T09:26:37.351Z,8.14
2023-02-13T09:29:05.934Z,8.07
2023-02-13T09:31:34.400Z,8.00
2023-02-13T09:34:04.414Z,8.19
2023-02-13T09:36:33.303Z,7.99
2023-02-13T09:39:01.971Z,8.02
2023-02-13T09:41:31.922Z,8.30
2023-02-13T09:44:02.566Z,8.56
2023-02-13T09:46:34.275Z,8.73
2023-02-13T09:49:08.650Z,8.94
2023-02-13T09:51:37.260Z,8.54
2023-02-13T09:54:07.801Z,8.78
2023-02-13T09:56:50.150Z,9.06
2023-02-13T09:59:33.108Z,8.96
2023-02-13T10:02:03.684Z,8.77
2023-02-13T10:04:49.846Z,9.23
2023-02-13T10:07:22.052Z,9.14
2023-02-13T10:09:57.010Z,9.28
2023-02-13T10:12:38.529Z,9.23
2023-02-13T10:15:17.399Z,9.44
2023-02-13T10:17:46.920Z,9.22
2023-02-13T10:20:26.584Z,9.26
2023-02-13T10:22:58.234Z,9.17
2023-02-13T10:25:28.696Z,8.59
2023-02-13T10:28:00.018Z,8.71
2023-02-13T10:30:31.944Z,8.66
2023-02-13T10:33:20.627Z,8.65
2023-02-13T10:35:54.763Z,8.95
2023-02-13T10:38:24.866Z,8.69
2023-02-13T10:41:06.309Z,8.88
2023-02-13T10:43:40.571Z,8.58
2023-02-13T10:46:15.777Z,8.39
2023-02-13T10:48:56.525Z,8.41
2023-02-13T10:51:33.650Z,8.48
2023-02-13T10:54:23.907Z,8.55
2023-02-13T10:56:57.437Z,8.15
2023-02-13T10:59:36.325Z,8.41
2023-02-13T11:02:14.742Z,8.49
2023-02-13T11:04:44.985Z,8.39
2023-02-13T11:07:17.033Z,8.27
2023-02-13T11:09:46.873Z,8.12
2023-02-13T11:12:25.787Z,8.27
2023-02-13T11:14:58.852Z,7.92
2023-02-13T11:17:29.329Z,7.67
2023-02-13T11:19:59.458Z,7.80
2023-02-13T11:22:33.581Z,7.90
2023-02-13T11:25:04.468Z,7.86
2023-02-13T11:27:35.457Z,7.95
2023-02-13T11:30:13.112Z,8.05
2023-02-13T11:32:41.572Z,7.71
2023-02-13T11:35:29.224Z,8.39
2023-02-13T11:41:07.255Z,8.31
2023-02-13T11:43:37.979Z,8.19
2023-02-13T11:46:09.070Z,8.38
2023-02-13T11:48:37.836Z,8.13
2023-02-13T11:51:06.388Z,8.31
2023-02-13T11:53:37.972Z,8.44
2023-02-13T11:56:10.221Z,8.50
2023-02-13T11:58:39.365Z,8.09
2023-02-13T12:01:28.608Z,8.49
2023-02-13T12:04:02.636Z,8.24
2023-02-13T12:06:31.338Z,8.01
2023-02-13T12:08:59.935Z,7.93
2023-02-13T12:11:37.639Z,8.40
2023-02-13T12:14:06.860Z,8.05
2023-02-13T12:16:39.923Z,8.26
2023-02-13T12:19:13.442Z,8.17
2023-02-13T12:21:49.214Z,8.25
2023-02-13T12:24:28.022Z,8.14
2023-02-13T12:27:01.265Z,8.02
2023-02-13T12:29:45.942Z,8.03
2023-02-13T12:32:20.258Z,7.90
2023-02-13T12:35:01.971Z,7.78
2023-02-13T12:37:53.793Z,7.99
2023-02-13T12:40:41.628Z,7.91
2023-02-13T12:43:25.342Z,7.87
2023-02-13T12:45:57.925Z,7.82
2023-02-13T12:48:36.110Z,7.94
2023-02-13T12:51:11.924Z,7.83
2023-02-13T12:53:49.610Z,7.88
2023-02-13T12:56:34.934Z,8.00
2023-02-13T12:59:09.909Z,7.95
2023-02-13T13:02:09.625Z,8.15
2023-02-13T13:04:52.350Z,8.25
2023-02-13T13:07:34.297Z,8.20
2023-02-13T13:10:18.221Z,8.27
2023-02-13T13:12:52.919Z,8.14
2023-02-13T13:15:29.849Z,8.08
2023-02-13T13:18:09.576Z,8.01
2023-02-13T13:20:51.651Z,8.10
2023-02-13T13:23:22.807Z,7.91
2023-02-13T13:25:57.994Z,7.82
2023-02-13T13:28:31.006Z,7.85
2023-02-13T13:31:01.548Z,7.87
2023-02-13T13:33:30.337Z,7.61
2023-02-13T13:36:03.637Z,7.98
2023-02-13T13:38:41.174Z,8.04
2023-02-13T13:41:15.841Z,8.17
2023-02-13T13:43:58.616Z,8.39
2023-02-13T13:46:37.202Z,8.63
2023-02-13T13:49:16.846Z,8.68
2023-02-13T13:51:45.013Z,8.20
2023-02-13T13:54:36.230Z,8.68
2023-02-13T13:57:09.080Z,8.37
2023-02-13T14:00:03.564Z,8.49
2023-02-13T14:02:42.609Z,8.09
2023-02-13T14:05:30.233Z,8.09
2023-02-13T14:08:00.519Z,7.50
2023-02-13T14:11:08.786Z,7.78
2023-02-13T14:13:39.184Z,7.34
2023-02-13T14:16:11.654Z,7.64
2023-02-13T14:18:47.061Z,7.66
2023-02-13T14:21:24.134Z,7.80
2023-02-13T14:23:53.921Z,7.33
2023-02-13T14:26:36.259Z,7.86
2023-02-13T14:29:22.225Z,7.61
2023-02-13T14:32:05.635Z,7.80
2023-02-13T14:34:36.977Z,7.53
2023-02-13T14:37:35.402Z,7.44
2023-02-13T14:40:54.187Z,7.38
2023-02-13T14:43:40.363Z,6.95
2023-02-13T14:46:15.069Z,7.08
2023-02-13T14:48:46.814Z,7.05
2023-02-13T14:51:28.665Z,7.25
2023-02-13T14:54:01.216Z,7.13
2023-02-13T14:56:30.661Z,6.85
2023-02-13T14:59:03.913Z,7.21
2023-02-13T15:01:34.751Z,7.23
2023-02-13T15:04:08.917Z,7.29
2023-02-13T15:06:41.574Z,7.33
2023-02-13T15:09:21.325Z,7.47
2023-02-13T15:11:49.620Z,7.00
2023-02-13T15:14:24.113Z,7.32
2023-02-13T15:16:55.399Z,7.27
2023-02-13T15:19:25.087Z,7.26
2023-02-13T15:21:59.436Z,7.46
2023-02-13T15:24:36.671Z,7.18
2023-02-13T15:27:06.636Z,7.08
2023-02-13T15:29:47.909Z,6.68
2023-02-13T15:32:22.313Z,6.88
2023-02-13T15:34:51.053Z,6.44
2023-02-13T15:37:25.472Z,6.89
2023-02-13T15:39:53.989Z,6.35
2023-02-13T15:42:22.487Z,6.12
2023-02-13T15:44:52.757Z,6.44
2023-02-13T15:47:26.811Z,6.55
2023-02-13T15:49:55.622Z,6.13
2023-02-13T15:52:30.763Z,6.45
2023-02-13T15:54:59.906Z,5.99
2023-02-13T15:57:29.206Z,6.06
2023-02-13T15:59:59.075Z,6.09
2023-02-13T16:02:30.354Z,6.20
2023-02-13T16:04:59.091Z,5.71
2023-02-13T16:07:30.670Z,5.88
2023-02-13T16:10:17.441Z,6.13
2023-02-13T16:12:49.389Z,5.84
2023-02-13T16:15:20.025Z,5.69
2023-02-13T16:17:49.002Z,5.71
2023-02-13T16:20:21.780Z,5.94
2023-02-13T16:22:53.696Z,5.94
2023-02-13T16:25:27.409Z,5.94
2023-02-13T16:27:59.667Z,5.82
2023-02-13T16:30:34.872Z,5.98
2023-02-13T16:33:24.690Z,6.06
2023-02-13T16:35:55.321Z,5.75
2023-02-13T16:38:34.716Z,6.00
2023-02-13T16:41:06.018Z,5.82
2023-02-13T16:43:36.102Z,5.77
2023-02-13T16:46:32.570Z,6.14
2023-02-13T16:49:26.927Z,5.98
2023-02-13T16:52:12.575Z,6.31
2023-02-13T16:54:51.075Z,6.30
2023-02-13T16:57:23.172Z,6.17
2023-02-13T16:59:57.935Z,6.33
2023-02-13T17:02:27.913Z,6.13
2023-02-13T17:04:59.451Z,6.24
2023-02-13T17:07:29.861Z,6.21
2023-02-13T17:10:01.819Z,6.35
2023-02-13T17:12:32.070Z,6.22
2023-02-13T17:15:01.388Z,6.25
2023-02-13T17:17:31.737Z,6.24
2023-02-13T17:20:00.885Z,6.15
2023-02-13T17:22:35.518Z,6.54
2023-02-13T17:25:07.565Z,6.51
2023-02-13T17:27:36.346Z,6.18
2023-02-13T17:30:05.227Z,6.25
2023-02-13T17:32:34.151Z,6.27
2023-02-13T17:35:02.480Z,6.04
2023-02-13T17:37:33.212Z,6.06
2023-02-13T17:40:01.695Z,6.13
2023-02-13T17:42:32.810Z,6.48
2023-02-13T17:45:01.480Z,6.07
2023-02-13T17:47:31.205Z,6.12
2023-02-13T17:50:09.197Z,6.04
2023-02-13T17:52:39.460Z,6.16
2023-02-13T17:55:09.988Z,6.14
2023-02-13T17:57:40.760Z,6.38
2023-02-13T18:00:10.267Z,6.20
2023-02-13T18:02:39.042Z,6.03
2023-02-13T18:05:08.291Z,6.07
2023-02-13T18:07:37.339Z,5.95
2023-02-13T18:10:06.689Z,6.00
2023-02-13T18:12:35.641Z,5.95
2023-02-13T18:15:06.248Z,6.21
2023-02-13T18:17:34.971Z,6.01
2023-02-13T18:20:03.457Z,6.06
2023-02-13T18:22:32.402Z,6.03
2023-02-13T18:25:02.146Z,6.33
2023-02-13T18:27:31.011Z,5.96
2023-02-13T18:29:59.650Z,5.91
2023-02-13T18:32:30.153Z,6.02
2023-02-13T18:34:58.597Z,5.94
2023-02-13T18:37:29.676Z,5.94
2023-02-13T18:39:58.650Z,6.13
2023-02-13T18:42:27.802Z,6.18
2023-02-13T18:44:56.248Z,6.03
2023-02-13T18:47:25.069Z,6.07
2023-02-13T18:49:54.736Z,6.31
2023-02-13T18:52:23.336Z,6.10
2023-02-13T18:54:51.764Z,5.95
2023-02-13T18:57:20.812Z,6.01
2023-02-13T18:59:49.494Z,6.00
2023-02-13T19:02:19.234Z,5.96
2023-02-13T19:04:48.178Z,6.17
2023-02-13T19:07:18.310Z,6.26
2023-02-13T19:09:46.527Z,5.91
2023-02-13T19:12:15.304Z,5.84
2023-02-13T19:14:44.637Z,6.13
2023-02-13T19:17:13.388Z,6.02
2023-02-13T19:19:41.719Z,6.14
2023-02-13T19:22:10.477Z,6.19
2023-02-13T19:24:41.657Z,6.42
2023-02-13T19:27:10.457Z,6.20
2023-02-13T19:29:38.762Z,6.11
2023-02-13T19:32:07.477Z,6.23
2023-02-13T19:34:35.883Z,6.18
2023-02-13T19:37:04.581Z,6.24
2023-02-13T19:39:32.954Z,6.18
2023-02-13T19:42:03.108Z,6.52
2023-02-13T19:44:32.064Z,6.21
2023-02-13T19:47:00.769Z,6.13
2023-02-13T19:49:29.291Z,6.18
2023-02-13T19:51:57.917Z,6.09
2023-02-13T19:54:26.662Z,6.14
2023-02-13T19:57:00.419Z,6.13
2023-02-13T19:59:32.636Z,6.41
2023-02-13T20:02:01.357Z,6.10
2023-02-13T20:04:29.689Z,6.07
2023-02-13T20:06:58.703Z,6.23
2023-02-13T20:09:27.197Z,6.14
2023-02-13T20:11:55.828Z,6.22
2023-02-13T20:14:24.767Z,6.19
2023-02-13T20:16:54.911Z,6.51
2023-02-13T20:19:23.574Z,6.23
2023-02-13T20:21:52.248Z,6.30
2023-02-13T20:24:20.562Z,6.30
2023-02-13T20:26:49.608Z,6.53
2023-02-13T20:29:18.173Z,6.43
2023-02-13T20:31:46.880Z,6.37
2023-02-13T20:34:16.717Z,6.61
2023-02-13T20:36:45.442Z,6.41
2023-02-13T20:39:13.909Z,6.30
2023-02-13T20:41:42.760Z,6.35
2023-02-13T20:44:13.384Z,6.71
2023-02-13T20:46:42.569Z,6.38
2023-02-13T20:49:12.863Z,6.66
2023-02-13T20:51:42.903Z,6.70
2023-02-13T20:54:11.420Z,6.52
2023-02-13T20:56:40.303Z,6.50
2023-02-13T20:59:08.761Z,6.48
2023-02-13T21:01:41.434Z,6.62
2023-02-13T21:04:13.749Z,6.40
2023-02-13T21:06:44.271Z,6.60
2023-02-13T21:09:12.986Z,6.39
2023-02-13T21:11:44.130Z,6.61
2023-02-13T21:14:13.443Z,6.49
2023-02-13T21:16:43.362Z,6.54
2023-02-13T21:19:15.287Z,6.57
2023-02-13T21:21:46.015Z,6.60
2023-02-13T21:24:16.633Z,6.58
2023-02-13T21:26:46.063Z,6.40
2023-02-13T21:29:14.542Z,6.28
2023-02-13T21:31:47.687Z,6.56
2023-02-13T21:34:17.032Z,6.49
2023-02-13T21:36:47.451Z,6.63
2023-02-13T21:39:15.954Z,6.25
2023-02-13T21:41:46.211Z,6.45
2023-02-13T21:44:15.359Z,6.22
2023-02-13T21:46:45.260Z,6.22
2023-02-13T21:49:15.586Z,6.26
2023-02-13T21:51:44.462Z,6.07
2023-02-13T21:54:14.897Z,6.36
2023-02-13T21:56:44.635Z,6.21
2023-02-13T21:59:16.548Z,6.32
2023-02-13T22:01:46.238Z,6.21
2023-02-13T22:04:15.016Z,6.18
2023-02-13T22:06:43.766Z,6.00
2023-02-13T22:09:14.748Z,6.17
2023-02-13T22:11:44.016Z,6.11
2023-02-13T22:14:14.424Z,6.14
2023-02-13T22:16:43.905Z,6.03
2023-02-13T22:19:14.560Z,6.34
2023-02-13T22:21:43.405Z,6.12
2023-02-13T22:24:12.080Z,6.16
2023-02-13T22:26:46.721Z,6.44
2023-02-13T22:29:17.829Z,6.32
2023-02-13T22:31:46.405Z,6.91
2023-02-13T22:34:15.321Z,6.28
2023-02-13T22:36:43.900Z,6.19
2023-02-13T22:39:13.397Z,6.50
2023-02-13T22:41:45.736Z,6.51
2023-02-13T22:44:14.467Z,6.24
2023-02-13T22:46:42.972Z,6.09
2023-02-13T22:49:11.610Z,6.19
2023-02-13T22:51:40.295Z,6.09
2023-02-13T22:54:08.857Z,6.19
2023-02-13T22:56:37.458Z,6.14
2023-02-13T22:59:07.250Z,6.54
2023-02-13T23:01:37.611Z,6.30
2023-02-13T23:04:06.149Z,6.36
2023-02-13T23:06:35.089Z,6.41
2023-02-13T23:09:03.416Z,6.24
2023-02-13T23:11:49.203Z,6.33
2023-02-13T23:14:19.114Z,6.53
2023-02-13T23:17:05.136Z,6.31
2023-02-13T23:19:33.687Z,6.22
2023-02-13T23:22:02.506Z,6.14
2023-02-13T23:24:31.600Z,6.09
2023-02-13T23:27:00.812Z,6.22
2023-02-13T23:29:30.795Z,6.35
2023-02-13T23:32:00.539Z,6.35
2023-02-13T23:34:29.425Z,6.07
2023-02-13T23:36:58.007Z,6.11
2023-02-13T23:39:26.422Z,6.17
2023-02-13T23:41:55.387Z,6.18
2023-02-13T23:44:23.728Z,6.08
2023-02-13T23:46:53.903Z,6.34
2023-02-13T23:49:22.269Z,6.10
2023-02-13T23:51:50.993Z,6.16
2023-02-13T23:54:21.437Z,6.30
2023-02-13T23:56:51.107Z,6.36
2023-02-13T23:59:20.796Z,6.41
